createdAt,value
2022-08-26T07:16:59.581Z,26.70
2022-08-26T07:19:30.776Z,26.40
2022-08-26T07:22:02.300Z,26.40
2022-08-26T07:24:32.518Z,26.50
2022-08-26T07:27:01.994Z,26.60
2022-08-26T07:29:33.312Z,26.70
2022-08-26T07:32:03.877Z,26.80
2022-08-26T07:34:33.358Z,26.80
2022-08-26T07:37:02.670Z,26.90
2022-08-26T07:39:32.870Z,27.00
2022-08-26T07:42:01.479Z,27.10
2022-08-26T07:44:37.911Z,27.20
2022-08-26T07:47:24.071Z,27.20
2022-08-26T07:49:54.840Z,27.30
2022-08-26T07:52:26.726Z,27.40
2022-08-26T07:54:56.608Z,27.50
2022-08-26T07:57:25.079Z,27.60
2022-08-26T07:59:56.375Z,27.60
2022-08-26T08:02:26.279Z,27.70
2022-08-26T08:04:54.979Z,27.70
2022-08-26T08:07:25.728Z,27.80
2022-08-26T08:10:11.414Z,27.80
2022-08-26T08:12:40.323Z,27.90
2022-08-26T08:15:13.729Z,27.90
2022-08-26T08:17:43.417Z,28.00
2022-08-26T08:20:13.554Z,28.00
2022-08-26T08:22:43.282Z,28.10
2022-08-26T08:25:12.367Z,28.10
2022-08-26T08:27:43.084Z,28.20
2022-08-26T08:30:14.150Z,28.30
2022-08-26T08:32:43.576Z,28.30
2022-08-26T08:35:13.645Z,28.30
2022-08-26T08:37:43.747Z,28.30
2022-08-26T08:40:18.431Z,28.40
2022-08-26T08:42:49.278Z,28.40
2022-08-26T08:45:33.323Z,28.50
2022-08-26T08:48:08.093Z,28.50
2022-08-26T08:50:45.734Z,28.60
2022-08-26T08:53:18.092Z,28.70
2022-08-26T08:55:57.750Z,28.70
2022-08-26T08:58:37.398Z,28.70
2022-08-26T09:01:13.380Z,28.70
2022-08-26T09:03:50.330Z,28.90
2022-08-26T09:06:18.872Z,28.70
2022-08-26T09:08:50.077Z,28.80
2022-08-26T09:11:20.508Z,28.90
2022-08-26T09:13:52.656Z,28.90
2022-08-26T09:16:28.552Z,28.90
2022-08-26T09:19:05.974Z,28.90
2022-08-26T09:21:35.121Z,28.90
2022-08-26T09:24:03.860Z,28.90
2022-08-26T09:26:45.644Z,28.90
2022-08-26T09:32:16.490Z,29.00
2022-08-26T09:34:55.840Z,29.00
2022-08-26T09:37:39.908Z,29.00
2022-08-26T09:40:27.076Z,29.00
2022-08-26T09:43:11.966Z,28.90
2022-08-26T09:45:50.180Z,28.90
2022-08-26T09:48:36.414Z,28.90
2022-08-26T09:51:08.176Z,28.90
2022-08-26T09:53:51.175Z,28.90
2022-08-26T09:56:27.702Z,28.90
2022-08-26T09:58:57.951Z,28.90
2022-08-26T10:01:32.188Z,28.90
2022-08-26T10:04:11.348Z,29.00
2022-08-26T10:06:44.014Z,29.00
2022-08-26T10:09:15.304Z,29.00
2022-08-26T10:11:48.888Z,29.00
2022-08-26T10:14:22.210Z,29.00
2022-08-26T10:16:53.487Z,29.10
2022-08-26T10:19:41.552Z,29.10
2022-08-26T10:22:17.877Z,29.10
2022-08-26T10:24:51.961Z,29.20
2022-08-26T10:27:28.818Z,29.30
2022-08-26T10:30:04.137Z,29.30
2022-08-26T10:32:41.488Z,29.30
2022-08-26T10:35:15.107Z,29.40
2022-08-26T10:37:47.866Z,29.40
2022-08-26T10:40:24.298Z,29.50
2022-08-26T10:42:57.819Z,29.50
2022-08-26T10:45:30.215Z,29.50
2022-08-26T10:48:06.046Z,29.50
2022-08-26T10:50:38.539Z,29.60
2022-08-26T10:53:15.054Z,29.60
2022-08-26T10:55:52.532Z,29.60
2022-08-26T10:58:39.760Z,29.60
2022-08-26T11:01:32.345Z,29.50
2022-08-26T11:04:07.840Z,29.50
2022-08-26T11:06:37.839Z,29.50
2022-08-26T11:09:08.567Z,29.50
2022-08-26T11:11:48.996Z,29.60
2022-08-26T11:14:53.228Z,29.60
2022-08-26T11:18:07.161Z,29.60
2022-08-26T11:20:42.198Z,29.60
2022-08-26T11:23:50.729Z,29.60
2022-08-26T11:26:35.985Z,29.60
2022-08-26T11:29:13.553Z,29.60
2022-08-26T11:32:00.094Z,29.60
2022-08-26T11:34:58.337Z,29.50
2022-08-26T11:37:34.581Z,29.50
2022-08-26T11:40:09.633Z,29.50
2022-08-26T11:42:42.751Z,29.50
2022-08-26T11:45:26.525Z,29.60
2022-08-26T11:47:55.245Z,29.60
2022-08-26T11:50:26.409Z,29.60
2022-08-26T11:53:01.675Z,29.60
2022-08-26T11:55:32.707Z,29.60
2022-08-26T11:58:04.746Z,29.60
2022-08-26T12:00:49.003Z,29.70
2022-08-26T12:03:20.575Z,29.60
2022-08-26T12:05:53.216Z,29.60
2022-08-26T12:08:26.000Z,29.60
2022-08-26T12:11:07.038Z,29.60
2022-08-26T12:13:35.954Z,29.70
2022-08-26T12:16:07.905Z,29.60
2022-08-26T12:18:38.431Z,29.60
2022-08-26T12:21:16.224Z,29.60
2022-08-26T12:23:48.019Z,29.60
2022-08-26T12:26:27.195Z,29.60
2022-08-26T12:29:00.685Z,29.60
2022-08-26T12:31:34.876Z,29.60
2022-08-26T12:34:11.712Z,29.70
2022-08-26T12:36:49.322Z,29.70
2022-08-26T12:39:27.439Z,29.80
2022-08-26T12:41:58.691Z,29.70
2022-08-26T12:44:53.686Z,29.70
2022-08-26T12:47:39.075Z,29.80
2022-08-26T12:50:18.735Z,29.70
2022-08-26T12:52:58.360Z,29.80
2022-08-26T12:55:35.883Z,29.90
2022-08-26T12:58:31.712Z,29.90
2022-08-26T13:01:23.672Z,29.90
2022-08-26T13:03:52.272Z,29.90
2022-08-26T13:06:29.924Z,29.90
2022-08-26T13:08:59.979Z,30.00
2022-08-26T13:11:30.643Z,29.90
2022-08-26T13:14:01.924Z,29.90
2022-08-26T13:16:32.259Z,29.90
2022-08-26T13:19:03.011Z,29.90
2022-08-26T13:21:37.659Z,29.90
2022-08-26T13:24:10.612Z,29.80
2022-08-26T13:26:39.579Z,29.90
2022-08-26T13:29:10.320Z,29.90
2022-08-26T13:31:41.713Z,29.80
2022-08-26T13:34:12.171Z,29.90
2022-08-26T13:36:40.395Z,29.90
2022-08-26T13:39:08.795Z,29.90
2022-08-26T13:41:37.840Z,29.80
2022-08-26T13:44:06.946Z,29.70
2022-08-26T13:46:35.539Z,29.80
2022-08-26T13:49:05.620Z,29.90
2022-08-26T13:51:34.487Z,29.80
2022-08-26T13:54:02.757Z,29.80
2022-08-26T13:56:31.912Z,29.80
2022-08-26T13:59:01.839Z,29.80
2022-08-26T14:01:32.475Z,29.80
2022-08-26T14:04:03.021Z,29.70
2022-08-26T14:06:33.253Z,29.70
2022-08-26T14:09:01.659Z,29.70
2022-08-26T14:11:30.274Z,29.70
2022-08-26T14:14:18.426Z,29.60
2022-08-26T14:16:58.884Z,29.60
2022-08-26T14:19:29.661Z,29.50
2022-08-26T14:22:01.486Z,29.60
2022-08-26T14:24:30.463Z,29.60
2022-08-26T14:26:59.466Z,29.50
2022-08-26T14:29:28.339Z,29.50
2022-08-26T14:31:59.835Z,29.50
2022-08-26T14:34:28.190Z,29.50
2022-08-26T14:36:56.690Z,29.50
2022-08-26T14:39:26.392Z,29.60
2022-08-26T14:41:57.534Z,29.50
2022-08-26T14:44:29.385Z,29.50
2022-08-26T14:46:58.060Z,29.50
2022-08-26T14:49:27.415Z,29.50
2022-08-26T14:51:56.625Z,29.50
2022-08-26T14:54:29.474Z,29.50
2022-08-26T14:57:01.717Z,29.50
2022-08-26T14:59:33.757Z,29.50
2022-08-26T15:02:02.181Z,29.50
2022-08-26T15:04:30.736Z,29.50
2022-08-26T15:07:00.553Z,29.50
2022-08-26T15:09:31.882Z,29.50
2022-08-26T15:12:00.269Z,29.50
2022-08-26T15:14:32.690Z,29.50
2022-08-26T15:17:01.679Z,29.50
2022-08-26T15:19:30.027Z,29.60
2022-08-26T15:21:58.296Z,29.50
2022-08-26T15:24:28.873Z,29.60
2022-08-26T15:26:59.106Z,29.50
2022-08-26T15:29:27.420Z,29.50
2022-08-26T15:31:57.261Z,29.60
2022-08-26T15:34:26.586Z,29.60
2022-08-26T15:36:55.200Z,29.60
2022-08-26T15:39:23.527Z,29.50
2022-08-26T15:41:52.151Z,29.50
2022-08-26T15:44:22.148Z,29.50
2022-08-26T15:46:55.358Z,29.50
2022-08-26T15:49:26.113Z,29.50
2022-08-26T15:51:55.060Z,29.50
2022-08-26T15:54:24.510Z,29.50
2022-08-26T15:56:53.780Z,29.40
2022-08-26T15:59:23.967Z,29.40
2022-08-26T16:01:52.637Z,29.40
2022-08-26T16:04:20.994Z,29.40
2022-08-26T16:06:52.185Z,29.50
2022-08-26T16:09:22.894Z,29.40
2022-08-26T16:11:55.545Z,29.40
2022-08-26T16:14:27.478Z,29.30
2022-08-26T16:16:59.702Z,29.40
2022-08-26T16:19:31.168Z,29.40
2022-08-26T16:21:59.390Z,29.30
2022-08-26T16:24:30.560Z,29.30
2022-08-26T16:26:59.312Z,29.30
2022-08-26T16:29:29.576Z,29.20
2022-08-26T16:31:57.831Z,29.20
2022-08-26T16:34:26.127Z,29.20
2022-08-26T16:36:54.536Z,29.10
2022-08-26T16:39:22.807Z,29.10
2022-08-26T16:41:51.077Z,29.20
2022-08-26T16:44:19.420Z,29.10
2022-08-26T16:46:49.576Z,29.20
2022-08-26T16:49:17.903Z,29.20
2022-08-26T16:51:46.870Z,29.20
2022-08-26T16:54:15.128Z,29.20
2022-08-26T16:56:43.307Z,29.20
2022-08-26T16:59:12.224Z,29.20
2022-08-26T17:01:40.577Z,29.20
2022-08-26T17:04:10.210Z,29.20
2022-08-26T17:06:38.628Z,29.10
2022-08-26T17:09:06.821Z,29.10
2022-08-26T17:11:35.861Z,29.10
2022-08-26T17:14:04.410Z,29.00
2022-08-26T17:16:33.521Z,28.90
2022-08-26T17:19:02.536Z,28.90
2022-08-26T17:21:34.331Z,28.90
2022-08-26T17:24:03.229Z,28.80
2022-08-26T17:26:31.851Z,28.80
2022-08-26T17:29:00.447Z,28.70
2022-08-26T17:31:28.799Z,28.60
2022-08-26T17:33:57.408Z,28.60
2022-08-26T17:36:27.826Z,28.60
2022-08-26T17:38:59.000Z,28.50
2022-08-26T17:41:28.490Z,28.40
2022-08-26T17:43:57.120Z,28.40
2022-08-26T17:46:25.871Z,28.40
2022-08-26T17:48:54.774Z,28.30
2022-08-26T17:51:23.522Z,28.30
2022-08-26T17:53:52.687Z,28.30
2022-08-26T17:56:25.727Z,28.20
2022-08-26T17:58:55.276Z,28.20
2022-08-26T18:01:27.548Z,28.10
2022-08-26T18:04:00.246Z,28.10
2022-08-26T18:06:30.433Z,28.10
2022-08-26T18:08:59.707Z,28.10
2022-08-26T18:11:32.060Z,28.00
2022-08-26T18:14:01.403Z,28.00
2022-08-26T18:16:38.182Z,28.00
2022-08-26T18:19:07.267Z,27.90
2022-08-26T18:21:39.052Z,27.90
2022-08-26T18:24:12.116Z,27.90
2022-08-26T18:26:48.814Z,27.90
2022-08-26T18:29:18.622Z,27.80
2022-08-26T18:31:48.451Z,27.80
2022-08-26T18:34:19.916Z,27.70
2022-08-26T18:36:49.041Z,27.70
2022-08-26T18:39:19.174Z,27.80
2022-08-26T18:41:53.857Z,27.70
2022-08-26T18:44:23.335Z,27.60
2022-08-26T18:46:52.508Z,27.60
2022-08-26T18:49:22.127Z,27.60
2022-08-26T18:51:52.376Z,27.50
2022-08-26T18:54:21.607Z,27.50
2022-08-26T18:56:50.045Z,27.50
2022-08-26T18:59:19.728Z,27.50
2022-08-26T19:01:55.532Z,27.40
2022-08-26T19:04:23.820Z,27.40
2022-08-26T19:06:52.917Z,27.40
2022-08-26T19:09:22.151Z,27.40
2022-08-26T19:11:51.317Z,27.30
2022-08-26T19:14:22.308Z,27.30
2022-08-26T19:16:52.388Z,27.30
2022-08-26T19:19:22.075Z,27.30
2022-08-26T19:21:50.471Z,27.20
2022-08-26T19:24:19.815Z,27.20
2022-08-26T19:26:51.332Z,27.20
2022-08-26T19:29:32.859Z,27.20
2022-08-26T19:32:01.948Z,27.20
2022-08-26T19:34:30.449Z,27.20
2022-08-26T19:36:58.895Z,27.20
2022-08-26T19:39:27.598Z,27.10
2022-08-26T19:41:56.078Z,27.10
2022-08-26T19:44:46.618Z,27.10
2022-08-26T19:47:15.686Z,27.10
2022-08-26T19:49:45.851Z,27.10
2022-08-26T19:52:14.797Z,27.10
2022-08-26T19:54:44.608Z,27.10
2022-08-26T19:57:12.999Z,27.10
2022-08-26T19:59:44.485Z,27.10
2022-08-26T20:02:13.573Z,27.10
2022-08-26T20:04:42.860Z,27.00
2022-08-26T20:07:15.291Z,26.90
2022-08-26T20:09:46.978Z,26.90
2022-08-26T20:12:17.359Z,26.90
2022-08-26T20:14:47.144Z,26.80
2022-08-26T20:17:17.134Z,26.80
2022-08-26T20:20:02.956Z,26.70
2022-08-26T20:22:31.517Z,26.70
2022-08-26T20:25:00.067Z,26.70
2022-08-26T20:27:38.236Z,26.60
2022-08-26T20:30:10.605Z,26.60
2022-08-26T20:32:39.742Z,26.60
2022-08-26T20:35:10.258Z,26.50
2022-08-26T20:37:39.056Z,26.50
2022-08-26T20:40:09.031Z,26.50
2022-08-26T20:42:37.658Z,26.50
2022-08-26T20:45:08.598Z,26.60
2022-08-26T20:47:36.899Z,26.60
2022-08-26T20:50:06.261Z,26.60
2022-08-26T20:52:34.553Z,26.60
2022-08-26T20:55:03.370Z,26.50
2022-08-26T20:57:31.677Z,26.50
2022-08-26T21:00:01.105Z,26.50
2022-08-26T21:02:30.764Z,26.50
2022-08-26T21:04:59.309Z,26.50
2022-08-26T21:07:28.693Z,26.50
2022-08-26T21:09:58.128Z,26.50
2022-08-26T21:12:27.699Z,26.50
2022-08-26T21:14:56.711Z,26.50
2022-08-26T21:17:24.947Z,26.50
2022-08-26T21:19:55.105Z,26.50
2022-08-26T21:22:23.415Z,26.50
2022-08-26T21:24:51.970Z,26.50
2022-08-26T21:27:26.170Z,26.40
2022-08-26T21:29:55.004Z,26.50
2022-08-26T21:32:23.392Z,26.40
2022-08-26T21:34:56.276Z,26.40
2022-08-26T21:37:25.513Z,26.40
2022-08-26T21:39:56.148Z,26.40
2022-08-26T21:42:25.508Z,26.40
2022-08-26T21:44:54.990Z,26.40
2022-08-26T21:47:24.444Z,26.40
2022-08-26T21:49:53.429Z,26.40
2022-08-26T21:52:23.291Z,26.40
2022-08-26T21:54:51.703Z,26.30
2022-08-26T21:57:21.010Z,26.40
2022-08-26T21:59:49.226Z,26.30
2022-08-26T22:02:17.986Z,26.30
2022-08-26T22:04:48.871Z,26.30
2022-08-26T22:07:19.779Z,26.30
2022-08-26T22:09:51.045Z,26.30
2022-08-26T22:12:19.642Z,26.30
2022-08-26T22:14:48.158Z,26.30
2022-08-26T22:17:17.013Z,26.30
2022-08-26T22:19:45.798Z,26.30
2022-08-26T22:22:14.587Z,26.30
2022-08-26T22:24:43.377Z,26.30
2022-08-26T22:27:14.244Z,26.30
2022-08-26T22:29:42.595Z,26.30
2022-08-26T22:32:11.167Z,26.30
2022-08-26T22:34:39.517Z,26.30
2022-08-26T22:37:09.181Z,26.20
2022-08-26T22:39:38.014Z,26.20
2022-08-26T22:42:06.348Z,26.20
2022-08-26T22:44:37.569Z,26.20
2022-08-26T22:47:06.341Z,26.20
